createdAt,value
2018-04-26T00:01:10.752Z,100613.52
2018-04-26T00:03:39.081Z,100618.41
2018-04-26T00:06:07.480Z,100619.56
2018-04-26T00:08:35.892Z,100620.52
2018-04-26T00:11:04.241Z,100623.42
2018-04-26T00:13:32.583Z,100624.65
2018-04-26T00:16:01.179Z,100621.61
2018-04-26T00:18:29.563Z,100617.10
2018-04-26T00:20:57.899Z,100616.11
2018-04-26T00:23:27.174Z,100610.45
2018-04-26T00:25:55.515Z,100612.80
2018-04-26T00:28:23.890Z,100607.20
2018-04-26T00:30:52.362Z,100614.28
2018-04-26T00:33:20.687Z,100611.81
2018-04-26T00:35:49.021Z,100609.64
2018-04-26T00:38:17.718Z,100596.47
2018-04-26T00:40:46.063Z,100601.91
2018-04-26T00:43:15.250Z,100602.07
2018-04-26T00:45:43.886Z,100599.33
2018-04-26T00:48:12.247Z,100595.88
2018-04-26T00:50:40.603Z,100596.91
2018-04-26T00:53:08.954Z,100595.05
2018-04-26T00:55:37.337Z,100582.86
2018-04-26T00:58:05.765Z,100580.19
2018-04-26T01:00:34.168Z,100582.55
2018-04-26T01:03:02.493Z,100586.36
2018-04-26T01:05:31.461Z,100582.42
2018-04-26T01:08:00.758Z,100589.29
2018-04-26T01:10:29.095Z,100585.61
2018-04-26T01:12:57.478Z,100583.63
2018-04-26T01:15:26.224Z,100587.78
2018-04-26T01:17:54.537Z,100580.23
2018-04-26T01:20:22.882Z,100587.22
2018-04-26T01:22:51.366Z,100587.92
2018-04-26T01:25:19.701Z,100586.02
2018-04-26T01:27:48.053Z,100592.48
2018-04-26T01:30:16.437Z,100582.81
2018-04-26T01:32:44.829Z,100583.56
2018-04-26T01:35:13.193Z,100582.43
2018-04-26T01:37:48.429Z,100578.91
2018-04-26T01:40:16.810Z,100582.42
2018-04-26T01:42:45.277Z,100580.91
2018-04-26T01:45:13.729Z,100575.82
2018-04-26T01:47:42.106Z,100583.17
2018-04-26T01:50:10.490Z,100571.36
2018-04-26T01:52:40.941Z,100571.63
2018-04-26T01:55:09.302Z,100572.37
2018-04-26T01:57:37.677Z,100570.62
2018-04-26T02:00:06.061Z,100575.15
2018-04-26T02:02:34.480Z,100574.84
2018-04-26T02:05:02.875Z,100575.88
2018-04-26T02:07:32.582Z,100575.55
2018-04-26T02:10:01.226Z,100577.08
2018-04-26T02:12:29.593Z,100578.61
2018-04-26T02:14:58.028Z,100572.83
2018-04-26T02:17:26.374Z,100577.00
2018-04-26T02:19:54.719Z,100577.78
2018-04-26T02:22:23.132Z,100571.33
2018-04-26T02:24:51.467Z,100565.23
2018-04-26T02:27:19.820Z,100560.39
2018-04-26T02:29:48.242Z,100569.02
2018-04-26T02:32:16.566Z,100563.55
2018-04-26T02:34:44.922Z,100574.44
2018-04-26T02:37:14.090Z,100571.09
2018-04-26T02:39:42.466Z,100564.76
2018-04-26T02:42:10.908Z,100564.72
2018-04-26T02:44:40.142Z,100563.86
2018-04-26T02:47:08.564Z,100561.33
2018-04-26T02:49:37.029Z,100560.98
2018-04-26T02:52:05.691Z,100562.59
2018-04-26T02:54:34.164Z,100551.44
2018-04-26T02:57:02.970Z,100561.11
2018-04-26T02:59:35.055Z,100552.67
2018-04-26T03:02:03.406Z,100559.59
2018-04-26T03:04:31.741Z,100561.74
2018-04-26T03:07:00.114Z,100567.81
2018-04-26T03:09:28.460Z,100559.95
2018-04-26T03:11:56.928Z,100553.17
2018-04-26T03:14:25.330Z,100556.73
2018-04-26T03:16:53.751Z,100554.50
2018-04-26T03:19:22.767Z,100547.97
2018-04-26T03:21:51.210Z,100546.72
2018-04-26T03:24:19.564Z,100542.17
2018-04-26T03:26:47.946Z,100547.81
2018-04-26T03:29:16.463Z,100539.02
2018-04-26T03:31:44.891Z,100542.11
2018-04-26T03:34:13.255Z,100545.50
2018-04-26T03:36:41.649Z,100544.77
2018-04-26T03:39:10.072Z,100539.59
2018-04-26T03:41:38.492Z,100543.68
2018-04-26T03:44:06.935Z,100544.11
2018-04-26T03:46:35.351Z,100545.19
2018-04-26T03:49:03.681Z,100552.69
2018-04-26T03:51:32.054Z,100559.23
2018-04-26T03:54:00.396Z,100565.91
2018-04-26T03:56:28.729Z,100575.16
2018-04-26T03:58:57.116Z,100569.64
2018-04-26T04:01:37.018Z,100565.72
2018-04-26T04:04:17.088Z,100569.31
2018-04-26T04:06:45.443Z,100561.28
2018-04-26T04:09:13.851Z,100546.00
2018-04-26T04:11:42.301Z,100550.69
2018-04-26T04:14:10.707Z,100546.97
2018-04-26T04:16:39.081Z,100551.98
2018-04-26T04:19:08.108Z,100552.36
2018-04-26T04:21:36.508Z,100551.67
2018-04-26T04:24:04.864Z,100550.34
2018-04-26T04:26:34.252Z,100554.18
2018-04-26T04:29:02.692Z,100560.84
2018-04-26T04:31:31.787Z,100556.42
2018-04-26T04:34:00.165Z,100557.17
2018-04-26T04:36:28.501Z,100538.73
2018-04-26T04:38:56.842Z,100544.86
2018-04-26T04:41:25.526Z,100540.60
2018-04-26T04:43:53.894Z,100539.42
2018-04-26T04:46:22.269Z,100546.72
2018-04-26T04:48:51.391Z,100553.00
2018-04-26T04:51:19.774Z,100557.11
2018-04-26T04:53:48.153Z,100552.44
2018-04-26T04:56:16.544Z,100565.10
2018-04-26T04:58:45.858Z,100566.69
2018-04-26T05:01:14.233Z,100558.58
2018-04-26T05:03:42.721Z,100558.11
2018-04-26T05:06:11.164Z,100564.66
2018-04-26T05:08:39.516Z,100566.53
2018-04-26T05:11:07.976Z,100567.32
2018-04-26T05:13:36.384Z,100563.06
2018-04-26T05:16:04.802Z,100570.83
2018-04-26T05:18:33.194Z,100570.23
2018-04-26T05:21:02.331Z,100573.33
2018-04-26T05:23:30.689Z,100578.22
2018-04-26T05:25:59.150Z,100579.62
2018-04-26T05:28:27.488Z,100577.96
2018-04-26T05:30:55.813Z,100586.64
2018-04-26T05:33:24.227Z,100585.69
2018-04-26T05:35:52.590Z,100592.45
2018-04-26T05:38:20.921Z,100596.92
2018-04-26T05:40:49.371Z,100593.77
2018-04-26T05:43:17.772Z,100587.98
2018-04-26T05:45:46.162Z,100588.30
2018-04-26T05:48:14.584Z,100592.55
2018-04-26T05:50:42.973Z,100592.38
2018-04-26T05:53:11.311Z,100592.81
2018-04-26T05:55:39.950Z,100590.47
2018-04-26T05:58:08.396Z,100595.95
2018-04-26T06:00:36.947Z,100597.91
2018-04-26T06:03:05.945Z,100600.59
2018-04-26T06:05:34.333Z,100605.47
2018-04-26T06:08:02.692Z,100611.09
2018-04-26T06:10:31.607Z,100615.31
2018-04-26T06:13:01.175Z,100616.57
2018-04-26T06:15:29.517Z,100613.58
2018-04-26T06:17:57.890Z,100623.66
2018-04-26T06:20:26.309Z,100619.57
2018-04-26T06:22:54.720Z,100619.70
2018-04-26T06:25:23.955Z,100614.14
2018-04-26T06:27:52.318Z,100620.02
2018-04-26T06:30:20.675Z,100630.48
2018-04-26T06:32:49.050Z,100626.26
2018-04-26T06:35:17.433Z,100619.09
2018-04-26T06:37:45.817Z,100629.31
2018-04-26T06:40:15.239Z,100632.27
2018-04-26T06:42:43.983Z,100632.12
2018-04-26T06:45:12.436Z,100622.20
2018-04-26T06:47:41.204Z,100621.23
2018-04-26T06:50:09.615Z,100623.11
2018-04-26T06:52:38.036Z,100618.20
2018-04-26T06:55:06.532Z,100620.69
2018-04-26T06:57:34.972Z,100613.55
2018-04-26T07:00:03.319Z,100620.59
2018-04-26T07:02:31.940Z,100627.27
2018-04-26T07:05:01.249Z,100626.64
2018-04-26T07:07:29.616Z,100620.59
2018-04-26T07:09:58.001Z,100620.45
2018-04-26T07:12:26.347Z,100616.77
2018-04-26T07:14:54.737Z,100616.70
2018-04-26T07:17:24.027Z,100618.90
2018-04-26T07:19:52.409Z,100631.62
2018-04-26T07:22:20.766Z,100633.29
2018-04-26T07:24:49.663Z,100624.97
2018-04-26T07:27:18.928Z,100632.09
2018-04-26T07:29:47.340Z,100632.63
2018-04-26T07:32:15.755Z,100628.13
2018-04-26T07:34:44.212Z,100628.58
2018-04-26T07:37:12.620Z,100631.59
2018-04-26T07:39:41.017Z,100630.52
2018-04-26T07:42:09.452Z,100634.98
2018-04-26T07:44:37.829Z,100627.31
2018-04-26T07:47:06.238Z,100626.47
2018-04-26T07:49:34.738Z,100628.51
2018-04-26T07:52:03.114Z,100627.74
2018-04-26T07:54:32.055Z,100620.56
2018-04-26T07:57:00.384Z,100620.78
2018-04-26T07:59:29.598Z,100630.17
2018-04-26T08:01:58.303Z,100630.52
2018-04-26T08:04:26.637Z,100632.53
2018-04-26T08:06:55.048Z,100632.49
2018-04-26T08:09:24.942Z,100634.80
2018-04-26T08:11:53.282Z,100631.02
2018-04-26T08:14:21.649Z,100640.53
2018-04-26T08:16:50.313Z,100635.42
2018-04-26T08:19:18.654Z,100636.92
2018-04-26T08:21:47.066Z,100635.53
2018-04-26T08:24:15.486Z,100646.98
2018-04-26T08:26:43.834Z,100659.44
2018-04-26T08:29:12.169Z,100651.22
2018-04-26T08:31:40.744Z,100666.02
2018-04-26T08:34:09.189Z,100661.95
2018-04-26T08:36:37.686Z,100660.17
2018-04-26T08:39:06.459Z,100664.67
2018-04-26T08:41:36.019Z,100668.22
2018-04-26T08:44:04.940Z,100667.36
2018-04-26T08:46:34.620Z,100668.75
2018-04-26T08:49:02.979Z,100676.02
2018-04-26T08:51:31.320Z,100667.87
2018-04-26T08:53:59.687Z,100678.20
2018-04-26T08:56:28.020Z,100676.90
2018-04-26T08:58:56.437Z,100685.89
2018-04-26T09:01:25.004Z,100675.72
2018-04-26T09:03:53.358Z,100679.20
2018-04-26T09:06:22.708Z,100676.83
2018-04-26T09:08:51.921Z,100679.88
2018-04-26T09:11:21.181Z,100685.63
2018-04-26T09:13:49.524Z,100675.84
2018-04-26T09:16:18.758Z,100677.41
2018-04-26T09:18:47.237Z,100681.11
2018-04-26T09:21:15.620Z,100680.89
2018-04-26T09:23:44.079Z,100683.19
2018-04-26T09:26:12.583Z,100693.38
2018-04-26T09:28:42.333Z,100698.14
2018-04-26T09:31:10.819Z,100694.77
2018-04-26T09:33:39.185Z,100689.50
2018-04-26T09:36:07.567Z,100696.33
2018-04-26T09:38:36.360Z,100695.52
2018-04-26T09:41:04.783Z,100695.05
2018-04-26T09:43:33.123Z,100687.61
2018-04-26T09:46:01.502Z,100699.03
2018-04-26T09:48:29.848Z,100693.96
2018-04-26T09:50:58.245Z,100703.31
2018-04-26T09:53:26.810Z,100697.17
2018-04-26T09:55:55.164Z,100694.95
2018-04-26T09:58:23.501Z,100686.71
2018-04-26T10:00:54.312Z,100692.62
2018-04-26T10:03:22.634Z,100701.33
2018-04-26T10:05:57.391Z,100695.70
2018-04-26T10:08:25.731Z,100703.64
2018-04-26T10:10:54.144Z,100707.47
2018-04-26T10:13:24.056Z,100698.22
2018-04-26T10:15:52.439Z,100699.62
2018-04-26T10:18:20.734Z,100713.33
2018-04-26T10:20:49.722Z,100708.53
2018-04-26T10:23:18.085Z,100692.67
2018-04-26T10:25:46.444Z,100704.00
2018-04-26T10:28:14.875Z,100705.27
2018-04-26T10:30:43.359Z,100708.43
2018-04-26T10:33:11.911Z,100717.37
2018-04-26T10:35:40.747Z,100711.13
2018-04-26T10:38:09.260Z,100724.91
2018-04-26T10:43:12.740Z,100706.50
2018-04-26T10:45:41.092Z,100720.98
2018-04-26T10:48:09.620Z,100715.89
2018-04-26T10:50:38.549Z,100727.82
2018-04-26T10:53:07.215Z,100730.33
2018-04-26T10:55:35.739Z,100732.62
2018-04-26T10:58:04.143Z,100729.31
2018-04-26T11:00:32.559Z,100727.45
2018-04-26T11:03:01.139Z,100722.84
2018-04-26T11:05:29.929Z,100729.88
2018-04-26T11:07:58.274Z,100730.05
2018-04-26T11:10:26.632Z,100726.33
2018-04-26T11:12:54.999Z,100740.94
2018-04-26T11:15:23.329Z,100733.31
2018-04-26T11:17:51.691Z,100734.38
2018-04-26T11:20:20.081Z,100731.20
2018-04-26T11:22:48.517Z,100734.48
2018-04-26T11:25:16.906Z,100734.09
2018-04-26T11:27:45.536Z,100736.70
2018-04-26T11:30:13.886Z,100735.53
2018-04-26T11:32:42.346Z,100744.47
2018-04-26T11:35:10.806Z,100740.88
2018-04-26T11:37:39.224Z,100733.41
2018-04-26T11:40:07.668Z,100744.12
2018-04-26T11:42:36.161Z,100741.72
2018-04-26T11:45:05.505Z,100743.59
2018-04-26T11:47:34.187Z,100749.11
2018-04-26T11:50:02.706Z,100748.38
2018-04-26T11:52:31.143Z,100762.87
2018-04-26T11:54:59.549Z,100766.52
2018-04-26T11:57:28.042Z,100765.80
2018-04-26T11:59:56.409Z,100744.02
2018-04-26T12:02:25.525Z,100772.53
2018-04-26T12:04:54.448Z,100756.88
2018-04-26T12:07:22.804Z,100762.27
2018-04-26T12:09:51.206Z,100771.78
2018-04-26T12:12:20.028Z,100768.84
2018-04-26T12:14:48.546Z,100772.14
2018-04-26T12:17:16.978Z,100772.89
2018-04-26T12:19:46.150Z,100776.77
2018-04-26T12:22:14.759Z,100784.12
2018-04-26T12:24:43.211Z,100766.99
2018-04-26T12:27:11.738Z,100783.78
2018-04-26T12:29:40.096Z,100773.25
2018-04-26T12:32:08.483Z,100788.97
2018-04-26T12:34:37.166Z,100789.89
2018-04-26T12:37:05.725Z,100778.89
2018-04-26T12:39:34.075Z,100788.90
2018-04-26T12:42:03.536Z,100795.02
2018-04-26T12:44:32.011Z,100790.67
2018-04-26T12:47:00.359Z,100779.70
2018-04-26T12:49:28.797Z,100785.47
2018-04-26T12:51:57.148Z,100797.02
2018-04-26T12:54:25.487Z,100797.72
2018-04-26T12:56:53.926Z,100798.83
2018-04-26T12:59:22.346Z,100815.11
2018-04-26T13:01:50.742Z,100818.83
2018-04-26T14:26:22.922Z,100884.89
2018-04-26T14:28:51.289Z,100882.81
2018-04-26T14:31:20.322Z,100885.24
2018-04-26T14:33:48.811Z,100874.31
2018-04-26T14:36:17.208Z,100891.66
2018-04-26T14:38:45.618Z,100881.87
2018-04-26T14:41:14.104Z,100881.89
2018-04-26T14:43:42.524Z,100878.09
2018-04-26T14:46:10.909Z,100880.67
2018-04-26T14:48:39.418Z,100886.05
2018-04-26T14:51:07.827Z,100900.04
2018-04-26T14:53:36.286Z,100893.88
2018-04-26T14:56:05.063Z,100897.78
2018-04-26T14:58:33.408Z,100895.59
2018-04-26T15:01:05.132Z,100908.73
2018-04-26T15:03:33.613Z,100905.33
2018-04-26T15:06:02.063Z,100897.73
2018-04-26T15:08:30.425Z,100913.89
2018-04-26T15:10:59.617Z,100907.80
2018-04-26T15:13:27.983Z,100906.72
2018-04-26T15:15:56.360Z,100904.55
2018-04-26T15:18:24.752Z,100903.75
2018-04-26T15:20:53.085Z,100900.48
2018-04-26T15:23:21.453Z,100905.15
2018-04-26T15:25:49.827Z,100916.15
2018-04-26T15:28:18.170Z,100911.49
2018-04-26T15:30:46.528Z,100905.09
2018-04-26T15:33:14.947Z,100906.17
2018-04-26T15:35:43.355Z,100906.13
2018-04-26T15:38:11.683Z,100906.52
2018-04-26T15:40:40.254Z,100909.14
2018-04-26T15:43:08.720Z,100908.39
2018-04-26T15:45:37.077Z,100915.70
2018-04-26T15:48:05.489Z,100910.04
2018-04-26T15:53:44.399Z,100915.55
2018-04-26T15:56:22.079Z,100919.46
2018-04-26T16:02:24.037Z,100920.91
2018-04-26T16:05:04.172Z,100925.00
2018-04-26T16:11:04.652Z,100929.15
2018-04-26T16:13:51.158Z,100936.83
2018-04-26T16:16:37.123Z,100940.90
2018-04-26T16:19:27.909Z,100931.72
2018-04-26T16:22:14.480Z,100941.03
2018-04-26T16:24:55.638Z,100945.72
2018-04-26T16:27:42.429Z,100948.38
2018-04-26T16:30:22.527Z,100940.33
2018-04-26T16:33:06.704Z,100950.34
2018-04-26T16:35:46.932Z,100946.41
2018-04-26T16:38:27.696Z,100957.80
2018-04-26T16:40:56.056Z,100943.43
2018-04-26T16:43:24.399Z,100958.53
2018-04-26T16:45:52.795Z,100966.90
2018-04-26T16:48:21.168Z,100969.97
2018-04-26T16:50:49.501Z,100955.80
2018-04-26T16:53:17.922Z,100970.08
2018-04-26T16:55:46.301Z,100985.53
2018-04-26T16:58:15.294Z,100978.42
2018-04-26T17:00:43.697Z,100983.33
2018-04-26T17:03:12.598Z,100976.92
2018-04-26T17:05:40.972Z,100988.79
2018-04-26T17:08:09.368Z,100989.66
2018-04-26T17:10:37.758Z,100996.17
2018-04-26T17:13:06.156Z,100989.03
2018-04-26T17:15:34.676Z,100992.70
2018-04-26T17:18:03.037Z,100998.55
2018-04-26T17:20:31.411Z,100996.14
2018-04-26T17:23:00.961Z,100996.07
2018-04-26T17:25:29.304Z,100994.01
2018-04-26T17:27:57.763Z,100999.99
2018-04-26T17:30:26.143Z,101004.70
2018-04-26T17:32:54.500Z,101002.23
2018-04-26T17:35:22.856Z,101007.16
2018-04-26T17:37:51.294Z,101003.87
2018-04-26T17:40:19.867Z,101013.43
2018-04-26T17:42:48.223Z,101005.28
2018-04-26T17:45:18.205Z,101017.72
2018-04-26T17:47:46.588Z,101018.44
2018-04-26T17:50:14.956Z,101005.34
2018-04-26T17:52:43.883Z,101019.52
2018-04-26T17:55:12.213Z,101020.36
2018-04-26T17:57:40.615Z,101019.66
2018-04-26T18:00:09.499Z,101020.94
2018-04-26T18:02:38.066Z,101021.95
2018-04-26T18:05:06.569Z,101021.97
2018-04-26T18:07:35.024Z,101033.50
2018-04-26T18:10:04.450Z,101031.95
2018-04-26T18:12:33.067Z,101037.82
2018-04-26T18:15:01.509Z,101023.51
2018-04-26T18:17:29.950Z,101041.66
2018-04-26T18:20:08.147Z,101039.34
2018-04-26T18:22:26.765Z,101041.98
2018-04-26T18:24:55.183Z,101049.61
2018-04-26T18:27:23.525Z,101041.40
2018-04-26T18:29:51.909Z,101055.22
2018-04-26T18:32:20.288Z,101053.23
2018-04-26T18:34:48.653Z,101059.27
2018-04-26T18:37:18.369Z,101064.08
2018-04-26T18:39:46.960Z,101062.84
2018-04-26T18:42:15.363Z,101064.00
2018-04-26T18:44:43.881Z,101067.08
2018-04-26T18:47:12.229Z,101073.39
2018-04-26T18:49:40.807Z,101065.85
2018-04-26T18:52:09.909Z,101077.61
2018-04-26T18:54:38.339Z,101080.15
2018-04-26T18:57:06.901Z,101086.34
2018-04-26T18:59:35.265Z,101091.22
2018-04-26T19:02:03.629Z,101091.55
2018-04-26T19:04:32.374Z,101094.27
2018-04-26T19:07:00.860Z,101097.79
2018-04-26T19:09:29.183Z,101101.13
2018-04-26T19:11:57.565Z,101093.14
2018-04-26T19:14:26.389Z,101099.05
2018-04-26T19:16:54.726Z,101104.02
2018-04-26T19:19:23.783Z,101113.77
2018-04-26T19:21:52.235Z,101107.48
2018-04-26T19:24:20.582Z,101111.15
2018-04-26T19:26:48.987Z,101107.02
2018-04-26T19:29:17.710Z,101114.97
2018-04-26T19:31:46.123Z,101115.48
2018-04-26T19:34:14.526Z,101120.05
2018-04-26T19:36:42.939Z,101122.91
2018-04-26T19:39:11.364Z,101117.39
2018-04-26T19:41:39.743Z,101125.86
2018-04-26T19:44:08.285Z,101127.19
2018-04-26T19:46:36.712Z,101127.14
2018-04-26T19:49:05.106Z,101138.45
2018-04-26T19:51:34.136Z,101129.13
2018-04-26T19:54:02.456Z,101134.27
2018-04-26T19:56:30.828Z,101131.61
2018-04-26T19:58:59.423Z,101132.12
2018-04-26T20:01:27.788Z,101130.92
2018-04-26T20:03:56.181Z,101127.97
2018-04-26T20:06:24.627Z,101125.91
2018-04-26T20:08:52.994Z,101119.55
2018-04-26T20:11:22.273Z,101121.45
2018-04-26T20:13:50.638Z,101124.12
2018-04-26T20:16:19.006Z,101117.40
2018-04-26T20:18:47.524Z,101117.73
2018-04-26T20:21:16.032Z,101112.95
2018-04-26T20:23:44.404Z,101118.77
2018-04-26T20:26:12.962Z,101117.30
2018-04-26T20:28:41.335Z,101117.69
2018-04-26T20:31:09.724Z,101115.80
2018-04-26T20:33:38.081Z,101113.23
2018-04-26T20:36:07.266Z,101112.84
2018-04-26T20:38:35.745Z,101110.41
2018-04-26T20:41:04.067Z,101099.77
2018-04-26T20:43:32.499Z,101107.72
2018-04-26T20:46:00.821Z,101107.56
2018-04-26T20:48:41.364Z,101103.62
2018-04-26T20:51:09.718Z,101112.14
2018-04-26T20:53:38.115Z,101102.25
2018-04-26T20:56:06.607Z,101111.38
2018-04-26T20:58:35.035Z,101109.72
2018-04-26T21:01:03.386Z,101107.83
2018-04-26T21:03:32.583Z,101112.19
2018-04-26T21:06:00.956Z,101107.78
2018-04-26T21:08:29.300Z,101105.64
2018-04-26T21:10:59.155Z,101112.01
2018-04-26T21:13:27.522Z,101112.77
2018-04-26T21:15:55.887Z,101103.30
2018-04-26T21:18:24.275Z,101101.36
2018-04-26T21:20:52.654Z,101103.08
2018-04-26T21:23:20.977Z,101101.89
2018-04-26T21:25:49.427Z,101101.75
2018-04-26T21:28:17.761Z,101103.22
2018-04-26T21:30:46.146Z,101109.67
2018-04-26T21:33:14.902Z,101103.12
2018-04-26T21:35:43.342Z,101109.05
2018-04-26T21:38:11.626Z,101096.54
2018-04-26T21:40:40.515Z,101102.91
2018-04-26T21:43:08.970Z,101101.48
2018-04-26T21:45:42.327Z,101101.33
2018-04-26T21:48:11.488Z,101105.91
2018-04-26T21:50:47.082Z,101108.09
2018-04-26T21:53:21.795Z,101107.39
2018-04-26T21:55:55.845Z,101108.39
2018-04-26T21:58:29.748Z,101105.25
2018-04-26T22:01:05.312Z,101101.63
2018-04-26T22:03:34.353Z,101103.67
2018-04-26T22:06:02.744Z,101104.25
2018-04-26T22:08:31.401Z,101108.01
2018-04-26T22:10:59.778Z,101105.14
2018-04-26T22:13:28.417Z,101109.17
2018-04-26T22:15:57.041Z,101110.23
2018-04-26T22:18:25.383Z,101120.94
2018-04-26T22:20:53.715Z,101114.33
2018-04-26T22:23:22.114Z,101119.03
2018-04-26T22:25:50.490Z,101116.80
2018-04-26T22:28:18.834Z,101115.80
2018-04-26T22:30:48.146Z,101115.78
2018-04-26T22:33:16.494Z,101111.02
2018-04-26T22:35:44.972Z,101113.92
2018-04-26T22:38:13.351Z,101118.25
2018-04-26T22:40:41.697Z,101118.28
2018-04-26T22:43:10.158Z,101114.55
2018-04-26T22:45:38.607Z,101120.21
2018-04-26T22:48:07.018Z,101116.89
2018-04-26T22:50:35.380Z,101108.42
2018-04-26T22:53:04.275Z,101117.70
2018-04-26T22:55:32.713Z,101116.03
2018-04-26T22:58:01.065Z,101118.05
2018-04-26T23:00:29.619Z,101109.44
2018-04-26T23:02:57.947Z,101112.20
2018-04-26T23:05:26.286Z,101115.77
2018-04-26T23:07:54.675Z,101111.34
2018-04-26T23:10:23.007Z,101103.02
2018-04-26T23:12:51.342Z,101095.83
2018-04-26T23:15:19.717Z,101102.53
2018-04-26T23:17:48.069Z,101092.69
2018-04-26T23:20:16.400Z,101093.11
2018-04-26T23:22:44.778Z,101098.54
2018-04-26T23:25:13.175Z,101101.11
2018-04-26T23:27:41.562Z,101102.98
2018-04-26T23:30:09.934Z,101093.12
2018-04-26T23:32:38.416Z,101098.27
2018-04-26T23:35:06.775Z,101098.51
2018-04-26T23:37:35.144Z,101095.70
2018-04-26T23:40:03.496Z,101095.09
2018-04-26T23:42:31.822Z,101095.18
2018-04-26T23:45:00.207Z,101096.70
2018-04-26T23:47:28.552Z,101099.74
2018-04-26T23:49:56.902Z,101096.61
2018-04-26T23:52:25.591Z,101096.45
2018-04-26T23:54:53.924Z,101093.12
2018-04-26T23:57:22.250Z,101091.80
2018-04-26T23:59:50.785Z,101099.65
